sensor_id;sensor_type;location;lat;lon;timestamp;pressure;altitude;pressure_sealevel;temperature;humidity
30598;BME280;17365;48.878;8.334;2023-11-21T00:00:35;99484.16;;;9.84;100.00
30598;BME280;17365;48.878;8.334;2023-11-21T00:03:00;99485.06;;;9.79;100.00
30598;BME280;17365;48.878;8.334;2023-11-21T00:05:25;99485.06;;;9.80;100.00
30598;BME280;17365;48.878;8.334;2023-11-21T00:07:50;99492.78;;;9.85;100.00
30598;BME280;17365;48.878;8.334;2023-11-21T00:10:16;99495.41;;;9.83;100.00
30598;BME280;17365;48.878;8.334;2023-11-21T00:12:42;99487.59;;;9.91;100.00
30598;BME280;17365;48.878;8.334;2023-11-21T00:15:07;99490.28;;;9.74;100.00
30598;BME280;17365;48.878;8.334;2023-11-21T00:17:35;99488.47;;;9.88;100.00
30598;BME280;17365;48.878;8.334;2023-11-21T00:20:01;99483.28;;;9.88;100.00
30598;BME280;17365;48.878;8.334;2023-11-21T00:22:26;99480.69;;;9.91;100.00
30598;BME280;17365;48.878;8.334;2023-11-21T00:24:51;99483.31;;;9.85;100.00
30598;BME280;17365;48.878;8.334;2023-11-21T00:27:16;99472.09;;;9.86;100.00
30598;BME280;17365;48.878;8.334;2023-11-21T00:29:41;99470.28;;;9.96;100.00
30598;BME280;17365;48.878;8.334;2023-11-21T00:32:07;99475.50;;;9.91;100.00
30598;BME280;17365;48.878;8.334;2023-11-21T00:34:32;99472.84;;;10.01;100.00
30598;BME280;17365;48.878;8.334;2023-11-21T00:36:58;99474.59;;;9.99;100.00
30598;BME280;17365;48.878;8.334;2023-11-21T00:39:23;99478.00;;;10.04;100.00
30598;BME280;17365;48.878;8.334;2023-11-21T00:41:48;99476.31;;;10.00;100.00
30598;BME280;17365;48.878;8.334;2023-11-21T00:44:14;99473.69;;;10.06;100.00
30598;BME280;17365;48.878;8.334;2023-11-21T00:46:39;99477.13;;;10.06;100.00
30598;BME280;17365;48.878;8.334;2023-11-21T00:49:04;99466.72;;;10.14;100.00
30598;BME280;17365;48.878;8.334;2023-11-21T00:51:30;99470.19;;;10.13;100.00
30598;BME280;17365;48.878;8.334;2023-11-21T00:53:55;99471.97;;;10.05;100.00
30598;BME280;17365;48.878;8.334;2023-11-21T00:56:20;99470.28;;;9.95;100.00
30598;BME280;17365;48.878;8.334;2023-11-21T00:58:45;99466.00;;;9.97;100.00
30598;BME280;17365;48.878;8.334;2023-11-21T01:01:14;99470.25;;;10.02;100.00
30598;BME280;17365;48.878;8.334;2023-11-21T01:03:40;99471.22;;;9.87;100.00
30598;BME280;17365;48.878;8.334;2023-11-21T01:06:05;99469.44;;;9.92;100.00
30598;BME280;17365;48.878;8.334;2023-11-21T01:08:32;99479.88;;;9.82;100.00
30598;BME280;17365;48.878;8.334;2023-11-21T01:10:58;99478.06;;;9.98;100.00
30598;BME280;17365;48.878;8.334;2023-11-21T01:13:23;99480.66;;;9.95;100.00
30598;BME280;17365;48.878;8.334;2023-11-21T01:15:48;99475.41;;;10.05;100.00
30598;BME280;17365;48.878;8.334;2023-11-21T01:18:13;99477.22;;;9.92;100.00
30598;BME280;17365;48.878;8.334;2023-11-21T01:20:38;99478.06;;;9.98;100.00
30598;BME280;17365;48.878;8.334;2023-11-21T01:23:04;99483.22;;;10.01;100.00
30598;BME280;17365;48.878;8.334;2023-11-21T01:25:29;99484.97;;;9.94;100.00
30598;BME280;17365;48.878;8.334;2023-11-21T01:27:55;99476.31;;;10.00;100.00
30598;BME280;17365;48.878;8.334;2023-11-21T01:30:20;99478.94;;;9.97;100.00
30598;BME280;17365;48.878;8.334;2023-11-21T01:32:45;99482.41;;;9.92;100.00
30598;BME280;17365;48.878;8.334;2023-11-21T01:35:11;99496.34;;;9.67;100.00
30598;BME280;17365;48.878;8.334;2023-11-21T01:37:37;99496.41;;;9.50;100.00
30598;BME280;17365;48.878;8.334;2023-11-21T01:40:02;99485.16;;;9.65;100.00
30598;BME280;17365;48.878;8.334;2023-11-21T01:42:30;99489.47;;;9.63;100.00
30598;BME280;17365;48.878;8.334;2023-11-21T01:44:55;99493.78;;;9.64;100.00
30598;BME280;17365;48.878;8.334;2023-11-21T01:47:20;99492.97;;;9.50;100.00
30598;BME280;17365;48.878;8.334;2023-11-21T01:49:46;99490.34;;;9.56;100.00
30598;BME280;17365;48.878;8.334;2023-11-21T01:52:11;99486.91;;;9.55;100.00
30598;BME280;17365;48.878;8.334;2023-11-21T01:54:37;99486.06;;;9.49;100.00
30598;BME280;17365;48.878;8.334;2023-11-21T01:57:03;99494.69;;;9.49;100.00
30598;BME280;17365;48.878;8.334;2023-11-21T01:59:34;99490.38;;;9.50;100.00
30598;BME280;17365;48.878;8.334;2023-11-21T02:02:01;99490.34;;;9.56;100.00
30598;BME280;17365;48.878;8.334;2023-11-21T02:04:27;99492.97;;;9.54;100.00
30598;BME280;17365;48.878;8.334;2023-11-21T02:06:52;99489.50;;;9.49;100.00
30598;BME280;17365;48.878;8.334;2023-11-21T02:09:22;99495.59;;;9.41;100.00
30598;BME280;17365;48.878;8.334;2023-11-21T02:11:48;99489.53;;;9.45;100.00
30598;BME280;17365;48.878;8.334;2023-11-21T02:14:14;99489.53;;;9.46;100.00
30598;BME280;17365;48.878;8.334;2023-11-21T02:16:39;99503.31;;;9.48;100.00
30598;BME280;17365;48.878;8.334;2023-11-21T02:19:06;99506.72;;;9.67;100.00
30598;BME280;17365;48.878;8.334;2023-11-21T02:21:34;99516.16;;;9.80;100.00
30598;BME280;17365;48.878;8.334;2023-11-21T02:24:01;99507.53;;;9.78;100.00
30598;BME280;17365;48.878;8.334;2023-11-21T02:26:26;99509.31;;;9.59;100.00
30598;BME280;17365;48.878;8.334;2023-11-21T02:28:51;99511.06;;;9.50;100.00
30598;BME280;17365;48.878;8.334;2023-11-21T02:31:18;99514.56;;;9.46;100.00
30598;BME280;17365;48.878;8.334;2023-11-21T02:33:44;99511.91;;;9.59;100.00
30598;BME280;17365;48.878;8.334;2023-11-21T02:36:09;99509.34;;;9.56;100.00
30598;BME280;17365;48.878;8.334;2023-11-21T02:38:34;99512.81;;;9.48;100.00
30598;BME280;17365;48.878;8.334;2023-11-21T02:40:59;99511.94;;;9.50;100.00
30598;BME280;17365;48.878;8.334;2023-11-21T02:43:24;99506.78;;;9.49;100.00
30598;BME280;17365;48.878;8.334;2023-11-21T02:45:49;99505.97;;;9.28;100.00
30598;BME280;17365;48.878;8.334;2023-11-21T02:48:15;99511.19;;;9.21;100.00
30598;BME280;17365;48.878;8.334;2023-11-21T02:50:40;99512.03;;;9.15;100.00
30598;BME280;17365;48.878;8.334;2023-11-21T02:53:05;99513.75;;;9.27;100.00
30598;BME280;17365;48.878;8.334;2023-11-21T02:55:31;99505.16;;;9.10;100.00
30598;BME280;17365;48.878;8.334;2023-11-21T02:57:59;99505.16;;;9.11;100.00
30598;BME280;17365;48.878;8.334;2023-11-21T03:00:25;99504.28;;;9.15;100.00
30598;BME280;17365;48.878;8.334;2023-11-21T03:02:51;99499.97;;;9.17;100.00
30598;BME280;17365;48.878;8.334;2023-11-21T03:05:16;99500.88;;;9.01;100.00
30598;BME280;17365;48.878;8.334;2023-11-21T03:07:42;99499.13;;;9.04;100.00
30598;BME280;17365;48.878;8.334;2023-11-21T03:10:08;99495.69;;;9.02;100.00
30598;BME280;17365;48.878;8.334;2023-11-21T03:12:39;99502.59;;;9.02;100.00
30598;BME280;17365;48.878;8.334;2023-11-21T03:15:07;99500.88;;;9.01;100.00
30598;BME280;17365;48.878;8.334;2023-11-21T03:17:33;99496.53;;;9.14;100.00
30598;BME280;17365;48.878;8.334;2023-11-21T03:20:02;99503.44;;;9.13;100.00
30598;BME280;17365;48.878;8.334;2023-11-21T03:22:29;99494.81;;;9.20;100.00
30598;BME280;17365;48.878;8.334;2023-11-21T03:24:54;99493.03;;;9.25;100.00
30598;BME280;17365;48.878;8.334;2023-11-21T03:27:19;99489.59;;;9.23;100.00
30598;BME280;17365;48.878;8.334;2023-11-21T03:29:44;99497.38;;;9.22;100.00
30598;BME280;17365;48.878;8.334;2023-11-21T03:32:11;99483.53;;;9.27;100.00
30598;BME280;17365;48.878;8.334;2023-11-21T03:34:42;99499.97;;;9.22;100.00
30598;BME280;17365;48.878;8.334;2023-11-21T03:37:17;99497.38;;;9.17;100.00
30598;BME280;17365;48.878;8.334;2023-11-21T03:39:43;99495.66;;;9.13;100.00
30598;BME280;17365;48.878;8.334;2023-11-21T03:42:08;99501.72;;;9.12;100.00
30598;BME280;17365;48.878;8.334;2023-11-21T03:44:33;99501.75;;;9.06;100.00
30598;BME280;17365;48.878;8.334;2023-11-21T03:46:58;99502.56;;;9.22;100.00
30598;BME280;17365;48.878;8.334;2023-11-21T03:49:23;99503.44;;;9.10;100.00
30598;BME280;17365;48.878;8.334;2023-11-21T03:51:49;99493.97;;;9.06;100.00
30598;BME280;17365;48.878;8.334;2023-11-21T03:54:14;99497.44;;;9.07;100.00
30598;BME280;17365;48.878;8.334;2023-11-21T03:56:39;99490.53;;;8.99;100.00
30598;BME280;17365;48.878;8.334;2023-11-21T03:59:04;99503.44;;;9.10;100.00
30598;BME280;17365;48.878;8.334;2023-11-21T04:01:29;99497.41;;;9.00;100.00
30598;BME280;17365;48.878;8.334;2023-11-21T04:03:55;99506.03;;;9.02;100.00
30598;BME280;17365;48.878;8.334;2023-11-21T04:06:20;99512.94;;;9.03;100.00
30598;BME280;17365;48.878;8.334;2023-11-21T04:08:45;99508.63;;;9.10;100.00
30598;BME280;17365;48.878;8.334;2023-11-21T04:11:11;99508.63;;;9.01;100.00
30598;BME280;17365;48.878;8.334;2023-11-21T04:13:39;99510.38;;;9.07;100.00
30598;BME280;17365;48.878;8.334;2023-11-21T04:16:05;99516.38;;;9.13;100.00
30598;BME280;17365;48.878;8.334;2023-11-21T04:18:31;99518.06;;;9.16;100.00
30598;BME280;17365;48.878;8.334;2023-11-21T04:20:56;99517.19;;;9.27;100.00
30598;BME280;17365;48.878;8.334;2023-11-21T04:23:21;99523.25;;;9.16;100.00
30598;BME280;17365;48.878;8.334;2023-11-21T04:25:46;99522.38;;;9.23;100.00
30598;BME280;17365;48.878;8.334;2023-11-21T04:28:11;99524.97;;;9.17;100.00
30598;BME280;17365;48.878;8.334;2023-11-21T04:30:37;99527.56;;;9.15;100.00
30598;BME280;17365;48.878;8.334;2023-11-21T04:33:04;99532.75;;;9.17;100.00
30598;BME280;17365;48.878;8.334;2023-11-21T04:35:29;99539.66;;;9.21;100.00
30598;BME280;17365;48.878;8.334;2023-11-21T04:37:54;99533.59;;;9.23;100.00
30598;BME280;17365;48.878;8.334;2023-11-21T04:40:19;99533.63;;;9.11;100.00
30598;BME280;17365;48.878;8.334;2023-11-21T04:42:45;99540.47;;;9.27;100.00
30598;BME280;17365;48.878;8.334;2023-11-21T04:45:11;99538.78;;;9.20;100.00
30598;BME280;17365;48.878;8.334;2023-11-21T04:47:36;99543.09;;;9.15;100.00
30598;BME280;17365;48.878;8.334;2023-11-21T04:50:02;99544.84;;;9.09;100.00
30598;BME280;17365;48.878;8.334;2023-11-21T04:52:28;99543.97;;;9.22;100.00
30598;BME280;17365;48.878;8.334;2023-11-21T04:54:53;99542.22;;;9.30;100.00
30598;BME280;17365;48.878;8.334;2023-11-21T04:57:19;99537.94;;;9.20;100.00
30598;BME280;17365;48.878;8.334;2023-11-21T04:59:44;99535.34;;;9.14;100.00
30598;BME280;17365;48.878;8.334;2023-11-21T05:02:10;99540.50;;;9.17;100.00
30598;BME280;17365;48.878;8.334;2023-11-21T05:04:35;99545.72;;;9.08;100.00
30598;BME280;17365;48.878;8.334;2023-11-21T05:07:00;99551.75;;;9.00;100.00
30598;BME280;17365;48.878;8.334;2023-11-21T05:09:25;99551.75;;;9.07;100.00
30598;BME280;17365;48.878;8.334;2023-11-21T05:11:51;99554.31;;;9.20;100.00
30598;BME280;17365;48.878;8.334;2023-11-21T05:14:16;99557.75;;;9.21;100.00
30598;BME280;17365;48.878;8.334;2023-11-21T05:16:41;99558.63;;;9.23;100.00
30598;BME280;17365;48.878;8.334;2023-11-21T05:19:07;99556.03;;;9.24;100.00
30598;BME280;17365;48.878;8.334;2023-11-21T05:21:32;99564.66;;;9.20;100.00
30598;BME280;17365;48.878;8.334;2023-11-21T05:23:57;99568.97;;;9.17;100.00
30598;BME280;17365;48.878;8.334;2023-11-21T05:26:23;99568.97;;;9.21;100.00
30598;BME280;17365;48.878;8.334;2023-11-21T05:28:48;99572.44;;;9.22;100.00
30598;BME280;17365;48.878;8.334;2023-11-21T05:31:13;99575.00;;;9.26;100.00
30598;BME280;17365;48.878;8.334;2023-11-21T05:33:38;99570.72;;;9.19;100.00
30598;BME280;17365;48.878;8.334;2023-11-21T05:36:04;99576.75;;;9.23;100.00
30598;BME280;17365;48.878;8.334;2023-11-21T05:38:29;99581.94;;;9.20;100.00
30598;BME280;17365;48.878;8.334;2023-11-21T05:40:54;99590.56;;;9.10;100.00
30598;BME280;17365;48.878;8.334;2023-11-21T05:43:19;99591.41;;;9.13;100.00
30598;BME280;17365;48.878;8.334;2023-11-21T05:45:45;99594.00;;;9.13;100.00
30598;BME280;17365;48.878;8.334;2023-11-21T05:48:10;99599.19;;;8.96;100.00
30598;BME280;17365;48.878;8.334;2023-11-21T05:50:35;99596.59;;;8.92;100.00
30598;BME280;17365;48.878;8.334;2023-11-21T05:53:00;99609.53;;;9.02;100.00
30598;BME280;17365;48.878;8.334;2023-11-21T05:55:25;99602.63;;;9.03;100.00
30598;BME280;17365;48.878;8.334;2023-11-21T05:57:51;99607.78;;;9.03;100.00
30598;BME280;17365;48.878;8.334;2023-11-21T06:00:16;99608.66;;;9.00;100.00
30598;BME280;17365;48.878;8.334;2023-11-21T06:02:48;99612.13;;;9.18;100.00
30598;BME280;17365;48.878;8.334;2023-11-21T06:05:16;99621.59;;;9.08;100.00
30598;BME280;17365;48.878;8.334;2023-11-21T06:07:42;99611.25;;;9.02;100.00
30598;BME280;17365;48.878;8.334;2023-11-21T06:10:08;99615.56;;;9.03;100.00
30598;BME280;17365;48.878;8.334;2023-11-21T06:12:35;99619.88;;;9.01;100.00
30598;BME280;17365;48.878;8.334;2023-11-21T06:15:04;99616.44;;;9.10;100.00
30598;BME280;17365;48.878;8.334;2023-11-21T06:17:30;99619.00;;;9.20;100.00
30598;BME280;17365;48.878;8.334;2023-11-21T06:19:56;99622.47;;;9.18;100.00
30598;BME280;17365;48.878;8.334;2023-11-21T06:22:21;99627.63;;;9.05;100.00
30598;BME280;17365;48.878;8.334;2023-11-21T06:24:46;99622.44;;;8.93;100.00
30598;BME280;17365;48.878;8.334;2023-11-21T06:27:11;99631.06;;;8.94;100.00
30598;BME280;17365;48.878;8.334;2023-11-21T06:29:37;99632.81;;;8.99;100.00
30598;BME280;17365;48.878;8.334;2023-11-21T06:32:02;99625.91;;;9.03;100.00
30598;BME280;17365;48.878;8.334;2023-11-21T06:34:30;99634.53;;;8.99;100.00
30598;BME280;17365;48.878;8.334;2023-11-21T06:36:55;99641.44;;;9.01;100.00
30598;BME280;17365;48.878;8.334;2023-11-21T06:39:20;99644.88;;;9.13;100.00
30598;BME280;17365;48.878;8.334;2023-11-21T06:41:47;99643.16;;;9.13;100.00
30598;BME280;17365;48.878;8.334;2023-11-21T06:44:13;99643.16;;;9.12;100.00
30598;BME280;17365;48.878;8.334;2023-11-21T06:46:38;99644.00;;;9.15;100.00
30598;BME280;17365;48.878;8.334;2023-11-21T06:49:07;99649.22;;;9.09;100.00
30598;BME280;17365;48.878;8.334;2023-11-21T06:51:32;99645.75;;;9.12;100.00
30598;BME280;17365;48.878;8.334;2023-11-21T06:53:57;99644.00;;;9.01;100.00
30598;BME280;17365;48.878;8.334;2023-11-21T06:56:22;99652.63;;;9.02;100.00
30598;BME280;17365;48.878;8.334;2023-11-21T06:58:48;99653.50;;;9.02;100.00
30598;BME280;17365;48.878;8.334;2023-11-21T07:01:14;99657.84;;;9.08;100.00
30598;BME280;17365;48.878;8.334;2023-11-21T07:03:40;99656.97;;;9.14;100.00
30598;BME280;17365;48.878;8.334;2023-11-21T07:06:06;99660.41;;;9.00;100.00
30598;BME280;17365;48.878;8.334;2023-11-21T07:08:32;99666.44;;;8.99;100.00
30598;BME280;17365;48.878;8.334;2023-11-21T07:10:57;99674.22;;;8.99;100.00
30598;BME280;17365;48.878;8.334;2023-11-21T07:13:22;99673.38;;;9.19;100.00
30598;BME280;17365;48.878;8.334;2023-11-21T07:15:48;99688.88;;;9.07;100.00
30598;BME280;17365;48.878;8.334;2023-11-21T07:18:13;99687.16;;;9.30;100.00
30598;BME280;17365;48.878;8.334;2023-11-21T07:20:39;99687.16;;;9.19;100.00
30598;BME280;17365;48.878;8.334;2023-11-21T07:23:04;99695.75;;;8.98;100.00
30598;BME280;17365;48.878;8.334;2023-11-21T07:25:30;99694.06;;;9.32;100.00
30598;BME280;17365;48.878;8.334;2023-11-21T07:27:56;99686.28;;;9.34;100.00
30598;BME280;17365;48.878;8.334;2023-11-21T07:30:21;99696.63;;;9.25;100.00
30598;BME280;17365;48.878;8.334;2023-11-21T07:32:47;99697.50;;;9.25;100.00
30598;BME280;17365;48.878;8.334;2023-11-21T07:35:13;99705.28;;;9.34;100.00
30598;BME280;17365;48.878;8.334;2023-11-21T07:37:38;99703.56;;;9.33;100.00
30598;BME280;17365;48.878;8.334;2023-11-21T07:40:03;99697.50;;;9.33;100.00
30598;BME280;17365;48.878;8.334;2023-11-21T07:42:29;99704.41;;;9.20;100.00
30598;BME280;17365;48.878;8.334;2023-11-21T07:44:54;99700.97;;;9.20;100.00
30598;BME280;17365;48.878;8.334;2023-11-21T07:50:19;99713.03;;;9.25;100.00
30598;BME280;17365;48.878;8.334;2023-11-21T07:52:45;99710.44;;;9.24;100.00
30598;BME280;17365;48.878;8.334;2023-11-21T07:55:10;99713.06;;;9.18;100.00
30598;BME280;17365;48.878;8.334;2023-11-21T07:57:36;99713.91;;;9.18;100.00
30598;BME280;17365;48.878;8.334;2023-11-21T08:00:01;99716.50;;;9.30;100.00
30598;BME280;17365;48.878;8.334;2023-11-21T08:02:28;99717.38;;;9.45;100.00
30598;BME280;17365;48.878;8.334;2023-11-21T08:04:53;99720.81;;;9.44;100.00
30598;BME280;17365;48.878;8.334;2023-11-21T08:07:19;99719.97;;;9.54;100.00
30598;BME280;17365;48.878;8.334;2023-11-21T08:09:44;99723.38;;;9.50;100.00
30598;BME280;17365;48.878;8.334;2023-11-21T08:12:09;99725.13;;;9.48;100.00
30598;BME280;17365;48.878;8.334;2023-11-21T08:14:35;99733.78;;;9.41;100.00
30598;BME280;17365;48.878;8.334;2023-11-21T08:17:03;99730.31;;;9.55;100.00
30598;BME280;17365;48.878;8.334;2023-11-21T08:19:29;99739.78;;;9.32;100.00
30598;BME280;17365;48.878;8.334;2023-11-21T08:21:54;99734.63;;;9.52;100.00
30598;BME280;17365;48.878;8.334;2023-11-21T08:24:19;99739.81;;;9.64;100.00
30598;BME280;17365;48.878;8.334;2023-11-21T08:26:44;99745.81;;;9.72;100.00
30598;BME280;17365;48.878;8.334;2023-11-21T08:29:10;99741.53;;;9.68;100.00
30598;BME280;17365;48.878;8.334;2023-11-21T08:31:35;99742.38;;;9.62;100.00
30598;BME280;17365;48.878;8.334;2023-11-21T08:34:01;99755.34;;;9.69;100.00
30598;BME280;17365;48.878;8.334;2023-11-21T08:36:27;99751.84;;;9.83;100.00
30598;BME280;17365;48.878;8.334;2023-11-21T08:38:52;99751.00;;;9.83;100.00
30598;BME280;17365;48.878;8.334;2023-11-21T08:41:18;99751.84;;;9.85;100.00
30598;BME280;17365;48.878;8.334;2023-11-21T08:43:46;99755.31;;;9.79;100.00
30598;BME280;17365;48.878;8.334;2023-11-21T08:46:12;99759.66;;;9.68;100.00
30598;BME280;17365;48.878;8.334;2023-11-21T08:48:38;99771.72;;;9.58;100.00
30598;BME280;17365;48.878;8.334;2023-11-21T08:51:03;99759.63;;;9.80;100.00
30598;BME280;17365;48.878;8.334;2023-11-21T08:53:29;99765.69;;;9.66;100.00
30598;BME280;17365;48.878;8.334;2023-11-21T08:55:55;99771.75;;;9.42;100.00
30598;BME280;17365;48.878;8.334;2023-11-21T08:58:21;99770.00;;;9.44;100.00
30598;BME280;17365;48.878;8.334;2023-11-21T09:00:46;99777.78;;;9.53;100.00
30598;BME280;17365;48.878;8.334;2023-11-21T09:03:12;99773.47;;;9.43;100.00
30598;BME280;17365;48.878;8.334;2023-11-21T09:05:38;99779.50;;;9.55;100.00
30598;BME280;17365;48.878;8.334;2023-11-21T09:08:04;99780.38;;;9.65;100.00
30598;BME280;17365;48.878;8.334;2023-11-21T09:10:29;99782.94;;;9.39;100.00
30598;BME280;17365;48.878;8.334;2023-11-21T09:12:54;99795.03;;;9.31;100.00
30598;BME280;17365;48.878;8.334;2023-11-21T09:15:19;99800.97;;;9.05;100.00
30598;BME280;17365;48.878;8.334;2023-11-21T09:17:45;99803.69;;;9.51;100.00
30598;BME280;17365;48.878;8.334;2023-11-21T09:20:10;99797.63;;;9.46;100.00
30598;BME280;17365;48.878;8.334;2023-11-21T09:22:36;99795.03;;;9.68;100.00
30598;BME280;17365;48.878;8.334;2023-11-21T09:25:01;99800.22;;;9.45;100.00
30598;BME280;17365;48.878;8.334;2023-11-21T09:27:30;99799.38;;;9.52;100.00
30598;BME280;17365;48.878;8.334;2023-11-21T09:29:55;99808.81;;;9.31;100.00
30598;BME280;17365;48.878;8.334;2023-11-21T09:32:20;99808.88;;;9.67;100.00
30598;BME280;17365;48.878;8.334;2023-11-21T09:34:46;99809.72;;;9.88;100.00
30598;BME280;17365;48.878;8.334;2023-11-21T09:37:11;99813.16;;;9.84;100.00
30598;BME280;17365;48.878;8.334;2023-11-21T09:39:36;99812.31;;;9.90;100.00
30598;BME280;17365;48.878;8.334;2023-11-21T09:42:04;99809.72;;;10.10;100.00
30598;BME280;17365;48.878;8.334;2023-11-21T09:44:38;99815.75;;;10.16;100.00
30598;BME280;17365;48.878;8.334;2023-11-21T09:47:09;99814.03;;;10.14;100.00
30598;BME280;17365;48.878;8.334;2023-11-21T09:49:35;99820.09;;;9.98;100.00
30598;BME280;17365;48.878;8.334;2023-11-21T09:52:02;99827.00;;;10.11;100.00
30598;BME280;17365;48.878;8.334;2023-11-21T09:54:30;99826.13;;;10.06;100.00
30598;BME280;17365;48.878;8.334;2023-11-21T09:56:56;99823.53;;;10.29;100.00
30598;BME280;17365;48.878;8.334;2023-11-21T09:59:23;99825.25;;;10.34;100.00
30598;BME280;17365;48.878;8.334;2023-11-21T10:01:48;99827.84;;;10.34;100.00
30598;BME280;17365;48.878;8.334;2023-11-21T10:04:15;99814.88;;;10.45;100.00
30598;BME280;17365;48.878;8.334;2023-11-21T10:06:41;99825.25;;;10.43;100.00
30598;BME280;17365;48.878;8.334;2023-11-21T10:09:08;99833.91;;;9.93;100.00
30598;BME280;17365;48.878;8.334;2023-11-21T10:11:36;99835.63;;;9.82;100.00
30598;BME280;17365;48.878;8.334;2023-11-21T10:14:03;99833.91;;;9.86;100.00
30598;BME280;17365;48.878;8.334;2023-11-21T10:16:29;99831.31;;;9.69;100.00
30598;BME280;17365;48.878;8.334;2023-11-21T10:18:54;99832.16;;;9.83;100.00
30598;BME280;17365;48.878;8.334;2023-11-21T10:21:20;99827.00;;;10.02;100.00
30598;BME280;17365;48.878;8.334;2023-11-21T10:23:46;99830.47;;;9.76;100.00
30598;BME280;17365;48.878;8.334;2023-11-21T10:26:12;99831.31;;;9.81;100.00
30598;BME280;17365;48.878;8.334;2023-11-21T10:28:41;99833.06;;;9.75;100.00
30598;BME280;17365;48.878;8.334;2023-11-21T10:31:07;99828.72;;;9.95;100.00
30598;BME280;17365;48.878;8.334;2023-11-21T10:33:32;99830.44;;;10.13;100.00
30598;BME280;17365;48.878;8.334;2023-11-21T10:35:57;99835.63;;;9.91;100.00
30598;BME280;17365;48.878;8.334;2023-11-21T10:38:23;99837.34;;;10.15;100.00
30598;BME280;17365;48.878;8.334;2023-11-21T10:40:49;99846.84;;;9.68;100.00
30598;BME280;17365;48.878;8.334;2023-11-21T10:43:14;99839.06;;;9.69;100.00
30598;BME280;17365;48.878;8.334;2023-11-21T10:45:40;99854.59;;;9.72;100.00
30598;BME280;17365;48.878;8.334;2023-11-21T10:48:09;99845.94;;;9.43;100.00
30598;BME280;17365;48.878;8.334;2023-11-21T10:50:35;99850.25;;;9.30;100.00
30598;BME280;17365;48.878;8.334;2023-11-21T10:53:01;99854.53;;;9.25;100.00
30598;BME280;17365;48.878;8.334;2023-11-21T10:55:27;99869.97;;;9.00;100.00
30598;BME280;17365;48.878;8.334;2023-11-21T10:57:53;99869.16;;;9.12;100.00
30598;BME280;17365;48.878;8.334;2023-11-21T11:00:19;99875.22;;;9.19;100.00
30598;BME280;17365;48.878;8.334;2023-11-21T11:02:46;99878.63;;;9.16;100.00
30598;BME280;17365;48.878;8.334;2023-11-21T11:05:14;99873.53;;;9.31;100.00
30598;BME280;17365;48.878;8.334;2023-11-21T11:07:40;99870.91;;;9.22;100.00
30598;BME280;17365;48.878;8.334;2023-11-21T11:10:08;99878.63;;;9.10;100.00
30598;BME280;17365;48.878;8.334;2023-11-21T11:12:39;99883.81;;;9.09;100.00
30598;BME280;17365;48.878;8.334;2023-11-21T11:15:04;99884.72;;;9.24;100.00
30598;BME280;17365;48.878;8.334;2023-11-21T11:17:30;99886.47;;;9.38;100.00
30598;BME280;17365;48.878;8.334;2023-11-21T11:19:57;99883.06;;;9.45;100.00
30598;BME280;17365;48.878;8.334;2023-11-21T11:27:48;99898.56;;;9.31;100.00
30598;BME280;17365;48.878;8.334;2023-11-21T11:30:34;99896.88;;;9.47;100.00
30598;BME280;17365;48.878;8.334;2023-11-21T11:36:22;99897.75;;;9.56;100.00
30598;BME280;17365;48.878;8.334;2023-11-21T11:38:20;99887.41;;;9.58;100.00
30598;BME280;17365;48.878;8.334;2023-11-21T11:40:46;99886.47;;;9.39;100.00
30598;BME280;17365;48.878;8.334;2023-11-21T11:43:11;99890.78;;;9.39;100.00
30598;BME280;17365;48.878;8.334;2023-11-21T11:45:37;99885.63;;;9.36;100.00
30598;BME280;17365;48.878;8.334;2023-11-21T11:48:06;99886.53;;;9.53;100.00
30598;BME280;17365;48.878;8.334;2023-11-21T11:50:32;99882.16;;;9.37;100.00
30598;BME280;17365;48.878;8.334;2023-11-21T11:53:11;99889.97;;;9.44;100.00
30598;BME280;17365;48.878;8.334;2023-11-21T11:55:37;99891.69;;;9.47;100.00
30598;BME280;17365;48.878;8.334;2023-11-21T11:58:04;99894.22;;;9.27;100.00
30598;BME280;17365;48.878;8.334;2023-11-21T12:02:58;99901.16;;;9.36;100.00
30598;BME280;17365;48.878;8.334;2023-11-21T12:05:24;99889.13;;;9.53;100.00
30598;BME280;17365;48.878;8.334;2023-11-21T12:10:19;99889.06;;;9.31;100.00
30598;BME280;17365;48.878;8.334;2023-11-21T12:12:48;99887.38;;;9.43;100.00
30598;BME280;17365;48.878;8.334;2023-11-21T12:15:13;99888.28;;;9.65;100.00
30598;BME280;17365;48.878;8.334;2023-11-21T12:17:39;99883.13;;;9.65;100.00
30598;BME280;17365;48.878;8.334;2023-11-21T12:20:05;99889.09;;;9.41;100.00
30598;BME280;17365;48.878;8.334;2023-11-21T12:22:49;99884.78;;;9.49;100.00
30598;BME280;17365;48.878;8.334;2023-11-21T12:25:15;99890.03;;;9.88;100.00
30598;BME280;17365;48.878;8.334;2023-11-21T12:27:47;99894.28;;;9.41;100.00
30598;BME280;17365;48.878;8.334;2023-11-21T12:30:14;99886.56;;;9.71;100.00
30598;BME280;17365;48.878;8.334;2023-11-21T12:32:41;99886.59;;;9.76;100.00
30598;BME280;17365;48.878;8.334;2023-11-21T12:35:06;99892.63;;;9.81;100.00
30598;BME280;17365;48.878;8.334;2023-11-21T12:37:32;99890.91;;;9.77;100.00
30598;BME280;17365;48.878;8.334;2023-11-21T12:39:57;99896.00;;;9.48;100.00
30598;BME280;17365;48.878;8.334;2023-11-21T12:42:23;99903.81;;;9.60;100.00
30598;BME280;17365;48.878;8.334;2023-11-21T12:44:48;99908.13;;;9.61;100.00
30598;BME280;17365;48.878;8.334;2023-11-21T12:47:19;99909.84;;;9.59;100.00
30598;BME280;17365;48.878;8.334;2023-11-21T12:49:46;99908.16;;;9.64;100.00
30598;BME280;17365;48.878;8.334;2023-11-21T12:52:11;99917.66;;;9.77;100.00
30598;BME280;17365;48.878;8.334;2023-11-21T12:54:36;99920.16;;;9.42;100.00
30598;BME280;17365;48.878;8.334;2023-11-21T12:57:02;99916.72;;;9.43;100.00
30598;BME280;17365;48.878;8.334;2023-11-21T12:59:29;99919.31;;;9.46;100.00
30598;BME280;17365;48.878;8.334;2023-11-21T13:01:55;99918.50;;;9.64;100.00
30598;BME280;17365;48.878;8.334;2023-11-21T13:04:29;99910.69;;;9.62;100.00
30598;BME280;17365;48.878;8.334;2023-11-21T13:06:54;99916.75;;;9.54;100.00
30598;BME280;17365;48.878;8.334;2023-11-21T13:09:20;99920.16;;;9.45;100.00